sensor_id;sensor_type;location;lat;lon;timestamp;P1;durP1;ratioP1;P2;durP2;ratioP2
29362;SDS011;16349;53.672;10.014;2023-10-08T00:01:02;10.93;;;2.40;;
29362;SDS011;16349;53.672;10.014;2023-10-08T00:03:31;6.90;;;2.93;;
29362;SDS011;16349;53.672;10.014;2023-10-08T00:05:58;10.87;;;2.50;;
29362;SDS011;16349;53.672;10.014;2023-10-08T00:08:32;5.87;;;1.77;;
29362;SDS011;16349;53.672;10.014;2023-10-08T00:11:00;8.50;;;2.27;;
29362;SDS011;16349;53.672;10.014;2023-10-08T00:13:31;11.60;;;3.10;;
29362;SDS011;16349;53.672;10.014;2023-10-08T00:16:04;8.63;;;2.43;;
29362;SDS011;16349;53.672;10.014;2023-10-08T00:18:34;4.10;;;1.77;;
29362;SDS011;16349;53.672;10.014;2023-10-08T00:21:02;6.13;;;2.00;;
29362;SDS011;16349;53.672;10.014;2023-10-08T00:23:41;8.33;;;2.07;;
29362;SDS011;16349;53.672;10.014;2023-10-08T00:26:14;10.13;;;2.43;;
29362;SDS011;16349;53.672;10.014;2023-10-08T00:28:46;8.50;;;2.47;;
29362;SDS011;16349;53.672;10.014;2023-10-08T00:31:16;10.73;;;2.80;;
29362;SDS011;16349;53.672;10.014;2023-10-08T00:33:43;6.70;;;2.10;;
29362;SDS011;16349;53.672;10.014;2023-10-08T00:36:10;9.97;;;2.63;;
29362;SDS011;16349;53.672;10.014;2023-10-08T00:38:44;5.80;;;2.20;;
29362;SDS011;16349;53.672;10.014;2023-10-08T00:41:12;9.57;;;2.57;;
29362;SDS011;16349;53.672;10.014;2023-10-08T00:43:41;8.97;;;2.83;;
29362;SDS011;16349;53.672;10.014;2023-10-08T00:46:13;8.13;;;3.07;;
29362;SDS011;16349;53.672;10.014;2023-10-08T00:48:48;11.47;;;3.50;;
29362;SDS011;16349;53.672;10.014;2023-10-08T00:51:20;9.87;;;3.10;;
29362;SDS011;16349;53.672;10.014;2023-10-08T00:53:52;8.10;;;2.70;;
29362;SDS011;16349;53.672;10.014;2023-10-08T00:56:26;6.20;;;2.97;;
29362;SDS011;16349;53.672;10.014;2023-10-08T00:59:11;6.83;;;2.80;;
29362;SDS011;16349;53.672;10.014;2023-10-08T01:01:41;7.00;;;2.30;;
29362;SDS011;16349;53.672;10.014;2023-10-08T01:04:15;7.20;;;2.83;;
29362;SDS011;16349;53.672;10.014;2023-10-08T01:06:42;10.73;;;2.53;;
29362;SDS011;16349;53.672;10.014;2023-10-08T01:09:09;7.63;;;2.97;;
29362;SDS011;16349;53.672;10.014;2023-10-08T01:11:44;13.67;;;2.50;;
29362;SDS011;16349;53.672;10.014;2023-10-08T01:14:14;6.17;;;2.47;;
29362;SDS011;16349;53.672;10.014;2023-10-08T01:16:46;4.53;;;2.50;;
29362;SDS011;16349;53.672;10.014;2023-10-08T01:19:17;7.17;;;2.57;;
29362;SDS011;16349;53.672;10.014;2023-10-08T01:21:45;13.70;;;2.00;;
29362;SDS011;16349;53.672;10.014;2023-10-08T01:24:14;7.77;;;2.23;;
29362;SDS011;16349;53.672;10.014;2023-10-08T01:26:43;5.67;;;2.47;;
29362;SDS011;16349;53.672;10.014;2023-10-08T01:29:11;5.30;;;2.10;;
29362;SDS011;16349;53.672;10.014;2023-10-08T01:31:45;7.07;;;2.20;;
29362;SDS011;16349;53.672;10.014;2023-10-08T01:34:12;9.50;;;2.30;;
29362;SDS011;16349;53.672;10.014;2023-10-08T01:36:43;8.17;;;2.13;;
29362;SDS011;16349;53.672;10.014;2023-10-08T01:39:10;4.87;;;1.90;;
29362;SDS011;16349;53.672;10.014;2023-10-08T01:41:43;6.77;;;1.83;;
29362;SDS011;16349;53.672;10.014;2023-10-08T01:44:12;6.10;;;1.60;;
29362;SDS011;16349;53.672;10.014;2023-10-08T01:46:39;6.30;;;2.03;;
29362;SDS011;16349;53.672;10.014;2023-10-08T01:49:06;5.90;;;2.30;;
29362;SDS011;16349;53.672;10.014;2023-10-08T01:51:40;10.50;;;1.83;;
29362;SDS011;16349;53.672;10.014;2023-10-08T01:54:12;4.23;;;2.03;;
29362;SDS011;16349;53.672;10.014;2023-10-08T01:56:44;4.43;;;1.53;;
29362;SDS011;16349;53.672;10.014;2023-10-08T01:59:11;5.67;;;2.03;;
29362;SDS011;16349;53.672;10.014;2023-10-08T02:01:39;5.90;;;1.93;;
29362;SDS011;16349;53.672;10.014;2023-10-08T02:04:06;6.20;;;1.83;;
29362;SDS011;16349;53.672;10.014;2023-10-08T02:06:34;7.73;;;1.60;;
29362;SDS011;16349;53.672;10.014;2023-10-08T02:09:01;5.67;;;1.27;;
29362;SDS011;16349;53.672;10.014;2023-10-08T02:11:40;5.17;;;1.40;;
29362;SDS011;16349;53.672;10.014;2023-10-08T02:14:15;4.37;;;1.67;;
29362;SDS011;16349;53.672;10.014;2023-10-08T02:16:42;4.37;;;1.60;;
29362;SDS011;16349;53.672;10.014;2023-10-08T02:19:09;6.27;;;1.83;;
29362;SDS011;16349;53.672;10.014;2023-10-08T02:21:36;4.53;;;1.37;;
29362;SDS011;16349;53.672;10.014;2023-10-08T02:24:06;9.63;;;1.97;;
29362;SDS011;16349;53.672;10.014;2023-10-08T02:26:34;5.27;;;1.40;;
29362;SDS011;16349;53.672;10.014;2023-10-08T02:29:03;5.17;;;1.60;;
29362;SDS011;16349;53.672;10.014;2023-10-08T02:31:35;4.03;;;1.40;;
29362;SDS011;16349;53.672;10.014;2023-10-08T02:34:03;3.67;;;1.50;;
29362;SDS011;16349;53.672;10.014;2023-10-08T02:36:33;5.00;;;1.60;;
29362;SDS011;16349;53.672;10.014;2023-10-08T02:39:02;4.03;;;1.60;;
29362;SDS011;16349;53.672;10.014;2023-10-08T02:41:32;5.30;;;1.57;;
29362;SDS011;16349;53.672;10.014;2023-10-08T02:43:58;7.07;;;1.63;;
29362;SDS011;16349;53.672;10.014;2023-10-08T02:46:27;6.07;;;1.20;;
29362;SDS011;16349;53.672;10.014;2023-10-08T02:48:58;8.50;;;1.73;;
29362;SDS011;16349;53.672;10.014;2023-10-08T02:51:29;5.37;;;1.60;;
29362;SDS011;16349;53.672;10.014;2023-10-08T02:53:56;14.33;;;2.00;;
29362;SDS011;16349;53.672;10.014;2023-10-08T02:56:23;8.10;;;1.40;;
29362;SDS011;16349;53.672;10.014;2023-10-08T02:58:49;3.97;;;1.37;;
29362;SDS011;16349;53.672;10.014;2023-10-08T03:01:16;8.97;;;1.20;;
29362;SDS011;16349;53.672;10.014;2023-10-08T03:03:44;3.87;;;1.40;;
29362;SDS011;16349;53.672;10.014;2023-10-08T03:06:12;2.43;;;1.50;;
29362;SDS011;16349;53.672;10.014;2023-10-08T03:08:40;3.50;;;1.67;;
29362;SDS011;16349;53.672;10.014;2023-10-08T03:11:08;7.13;;;1.60;;
29362;SDS011;16349;53.672;10.014;2023-10-08T03:13:43;2.63;;;1.00;;
29362;SDS011;16349;53.672;10.014;2023-10-08T03:16:13;7.50;;;1.93;;
29362;SDS011;16349;53.672;10.014;2023-10-08T03:18:40;2.97;;;1.30;;
29362;SDS011;16349;53.672;10.014;2023-10-08T03:21:11;2.23;;;1.23;;
29362;SDS011;16349;53.672;10.014;2023-10-08T03:23:47;7.07;;;1.57;;
29362;SDS011;16349;53.672;10.014;2023-10-08T03:26:15;5.87;;;1.50;;
29362;SDS011;16349;53.672;10.014;2023-10-08T03:29:01;7.20;;;1.60;;
29362;SDS011;16349;53.672;10.014;2023-10-08T03:31:34;4.33;;;1.27;;
29362;SDS011;16349;53.672;10.014;2023-10-08T03:34:18;6.00;;;1.93;;
29362;SDS011;16349;53.672;10.014;2023-10-08T03:36:47;3.43;;;1.40;;
29362;SDS011;16349;53.672;10.014;2023-10-08T03:39:15;4.93;;;1.43;;
29362;SDS011;16349;53.672;10.014;2023-10-08T03:41:44;5.80;;;1.27;;
29362;SDS011;16349;53.672;10.014;2023-10-08T03:44:24;5.57;;;1.27;;
29362;SDS011;16349;53.672;10.014;2023-10-08T03:46:54;6.03;;;1.47;;
29362;SDS011;16349;53.672;10.014;2023-10-08T03:49:22;5.57;;;1.63;;
29362;SDS011;16349;53.672;10.014;2023-10-08T03:51:54;5.10;;;1.40;;
29362;SDS011;16349;53.672;10.014;2023-10-08T03:54:22;2.00;;;0.90;;
29362;SDS011;16349;53.672;10.014;2023-10-08T03:56:59;3.63;;;1.03;;
29362;SDS011;16349;53.672;10.014;2023-10-08T03:59:26;3.23;;;1.10;;
29362;SDS011;16349;53.672;10.014;2023-10-08T04:01:59;3.53;;;1.00;;
29362;SDS011;16349;53.672;10.014;2023-10-08T04:04:35;6.07;;;1.10;;
29362;SDS011;16349;53.672;10.014;2023-10-08T04:07:17;2.67;;;1.10;;
29362;SDS011;16349;53.672;10.014;2023-10-08T04:09:54;6.30;;;1.00;;
29362;SDS011;16349;53.672;10.014;2023-10-08T04:12:41;6.60;;;0.90;;
29362;SDS011;16349;53.672;10.014;2023-10-08T04:15:09;2.23;;;0.90;;
29362;SDS011;16349;53.672;10.014;2023-10-08T04:17:37;8.83;;;1.33;;
29362;SDS011;16349;53.672;10.014;2023-10-08T04:20:10;1.00;;;0.80;;
29362;SDS011;16349;53.672;10.014;2023-10-08T04:22:57;6.60;;;1.33;;
29362;SDS011;16349;53.672;10.014;2023-10-08T04:25:25;6.27;;;1.10;;
29362;SDS011;16349;53.672;10.014;2023-10-08T04:27:53;3.80;;;1.00;;
29362;SDS011;16349;53.672;10.014;2023-10-08T04:30:23;3.17;;;1.07;;
29362;SDS011;16349;53.672;10.014;2023-10-08T04:32:58;7.00;;;1.53;;
29362;SDS011;16349;53.672;10.014;2023-10-08T04:35:31;1.97;;;1.47;;
29362;SDS011;16349;53.672;10.014;2023-10-08T04:38:03;3.63;;;1.40;;
29362;SDS011;16349;53.672;10.014;2023-10-08T04:40:33;8.07;;;1.80;;
29362;SDS011;16349;53.672;10.014;2023-10-08T04:43:07;4.67;;;0.90;;
29362;SDS011;16349;53.672;10.014;2023-10-08T04:45:36;3.33;;;1.53;;
29362;SDS011;16349;53.672;10.014;2023-10-08T04:48:03;2.77;;;0.90;;
29362;SDS011;16349;53.672;10.014;2023-10-08T04:50:35;3.43;;;1.20;;
29362;SDS011;16349;53.672;10.014;2023-10-08T04:53:03;4.40;;;1.10;;
29362;SDS011;16349;53.672;10.014;2023-10-08T04:55:33;3.10;;;1.07;;
29362;SDS011;16349;53.672;10.014;2023-10-08T04:58:00;2.63;;;1.00;;
29362;SDS011;16349;53.672;10.014;2023-10-08T05:00:37;2.37;;;1.10;;
29362;SDS011;16349;53.672;10.014;2023-10-08T05:03:18;4.93;;;1.10;;
29362;SDS011;16349;53.672;10.014;2023-10-08T05:05:48;4.47;;;1.10;;
29362;SDS011;16349;53.672;10.014;2023-10-08T05:08:34;3.97;;;1.07;;
29362;SDS011;16349;53.672;10.014;2023-10-08T05:11:13;3.93;;;1.00;;
29362;SDS011;16349;53.672;10.014;2023-10-08T05:14:02;3.00;;;1.00;;
29362;SDS011;16349;53.672;10.014;2023-10-08T05:16:41;4.87;;;1.03;;
29362;SDS011;16349;53.672;10.014;2023-10-08T05:19:25;2.93;;;1.07;;
29362;SDS011;16349;53.672;10.014;2023-10-08T05:22:13;4.93;;;1.40;;
29362;SDS011;16349;53.672;10.014;2023-10-08T05:25:00;2.97;;;0.70;;
29362;SDS011;16349;53.672;10.014;2023-10-08T05:27:51;2.40;;;1.07;;
29362;SDS011;16349;53.672;10.014;2023-10-08T05:30:24;2.13;;;1.20;;
29362;SDS011;16349;53.672;10.014;2023-10-08T05:32:53;2.20;;;1.10;;
29362;SDS011;16349;53.672;10.014;2023-10-08T05:35:37;3.03;;;0.80;;
29362;SDS011;16349;53.672;10.014;2023-10-08T05:38:20;3.90;;;1.00;;
29362;SDS011;16349;53.672;10.014;2023-10-08T05:40:49;3.40;;;1.53;;
29362;SDS011;16349;53.672;10.014;2023-10-08T05:43:42;2.97;;;0.87;;
29362;SDS011;16349;53.672;10.014;2023-10-08T05:46:20;3.27;;;1.03;;
29362;SDS011;16349;53.672;10.014;2023-10-08T05:49:12;3.27;;;0.90;;
29362;SDS011;16349;53.672;10.014;2023-10-08T05:51:51;2.50;;;1.03;;
29362;SDS011;16349;53.672;10.014;2023-10-08T05:54:47;2.30;;;0.93;;
29362;SDS011;16349;53.672;10.014;2023-10-08T05:57:41;2.90;;;1.00;;
29362;SDS011;16349;53.672;10.014;2023-10-08T06:00:12;2.40;;;1.10;;
29362;SDS011;16349;53.672;10.014;2023-10-08T06:02:57;5.87;;;1.40;;
29362;SDS011;16349;53.672;10.014;2023-10-08T06:05:35;2.33;;;1.07;;
29362;SDS011;16349;53.672;10.014;2023-10-08T06:08:12;2.10;;;0.90;;
29362;SDS011;16349;53.672;10.014;2023-10-08T06:10:40;4.43;;;1.73;;
29362;SDS011;16349;53.672;10.014;2023-10-08T06:13:22;2.27;;;0.90;;
29362;SDS011;16349;53.672;10.014;2023-10-08T06:16:10;3.33;;;1.43;;
29362;SDS011;16349;53.672;10.014;2023-10-08T06:18:39;4.57;;;1.20;;
29362;SDS011;16349;53.672;10.014;2023-10-08T06:21:06;2.50;;;1.07;;
29362;SDS011;16349;53.672;10.014;2023-10-08T06:23:34;1.97;;;1.00;;
29362;SDS011;16349;53.672;10.014;2023-10-08T06:26:02;3.80;;;1.00;;
29362;SDS011;16349;53.672;10.014;2023-10-08T06:28:41;3.23;;;1.10;;
29362;SDS011;16349;53.672;10.014;2023-10-08T06:31:09;3.30;;;1.00;;
29362;SDS011;16349;53.672;10.014;2023-10-08T06:33:41;2.30;;;1.17;;
29362;SDS011;16349;53.672;10.014;2023-10-08T06:36:09;2.53;;;1.10;;
29362;SDS011;16349;53.672;10.014;2023-10-08T06:38:41;4.97;;;2.20;;
29362;SDS011;16349;53.672;10.014;2023-10-08T06:41:09;6.53;;;1.40;;
29362;SDS011;16349;53.672;10.014;2023-10-08T06:43:44;3.63;;;1.40;;
29362;SDS011;16349;53.672;10.014;2023-10-08T06:46:14;3.40;;;1.07;;
29362;SDS011;16349;53.672;10.014;2023-10-08T06:48:44;5.37;;;1.33;;
29362;SDS011;16349;53.672;10.014;2023-10-08T06:51:14;1.37;;;1.17;;
29362;SDS011;16349;53.672;10.014;2023-10-08T06:53:43;3.83;;;1.10;;
29362;SDS011;16349;53.672;10.014;2023-10-08T06:56:11;2.13;;;1.03;;
29362;SDS011;16349;53.672;10.014;2023-10-08T06:58:39;2.83;;;0.90;;
29362;SDS011;16349;53.672;10.014;2023-10-08T07:01:12;2.17;;;1.30;;
29362;SDS011;16349;53.672;10.014;2023-10-08T07:03:39;5.87;;;1.27;;
29362;SDS011;16349;53.672;10.014;2023-10-08T07:06:06;3.17;;;1.10;;
29362;SDS011;16349;53.672;10.014;2023-10-08T07:08:50;1.47;;;1.20;;
29362;SDS011;16349;53.672;10.014;2023-10-08T07:11:20;3.93;;;1.50;;
29362;SDS011;16349;53.672;10.014;2023-10-08T07:13:47;2.90;;;1.10;;
29362;SDS011;16349;53.672;10.014;2023-10-08T07:16:17;2.47;;;1.07;;
29362;SDS011;16349;53.672;10.014;2023-10-08T07:18:46;2.63;;;1.10;;
29362;SDS011;16349;53.672;10.014;2023-10-08T07:21:17;4.70;;;1.10;;
29362;SDS011;16349;53.672;10.014;2023-10-08T07:23:49;4.90;;;1.43;;
29362;SDS011;16349;53.672;10.014;2023-10-08T07:26:25;2.53;;;1.10;;
29362;SDS011;16349;53.672;10.014;2023-10-08T07:29:01;3.17;;;1.00;;
29362;SDS011;16349;53.672;10.014;2023-10-08T07:31:34;3.40;;;0.90;;
29362;SDS011;16349;53.672;10.014;2023-10-08T07:34:02;3.90;;;1.03;;
29362;SDS011;16349;53.672;10.014;2023-10-08T07:36:40;4.13;;;1.30;;
29362;SDS011;16349;53.672;10.014;2023-10-08T07:39:08;2.03;;;1.30;;
29362;SDS011;16349;53.672;10.014;2023-10-08T07:41:48;3.70;;;0.90;;
29362;SDS011;16349;53.672;10.014;2023-10-08T07:44:15;4.20;;;1.00;;
29362;SDS011;16349;53.672;10.014;2023-10-08T07:46:47;2.43;;;0.90;;
29362;SDS011;16349;53.672;10.014;2023-10-08T07:49:15;3.13;;;1.03;;
29362;SDS011;16349;53.672;10.014;2023-10-08T07:51:42;4.10;;;1.00;;
29362;SDS011;16349;53.672;10.014;2023-10-08T07:54:16;4.47;;;1.00;;
29362;SDS011;16349;53.672;10.014;2023-10-08T07:56:45;4.60;;;1.00;;
29362;SDS011;16349;53.672;10.014;2023-10-08T07:59:13;6.53;;;1.00;;
29362;SDS011;16349;53.672;10.014;2023-10-08T08:01:41;2.50;;;1.00;;
29362;SDS011;16349;53.672;10.014;2023-10-08T08:04:10;2.67;;;1.00;;
29362;SDS011;16349;53.672;10.014;2023-10-08T08:06:47;3.63;;;1.03;;
29362;SDS011;16349;53.672;10.014;2023-10-08T08:09:16;4.30;;;0.90;;
29362;SDS011;16349;53.672;10.014;2023-10-08T08:11:45;2.67;;;0.90;;
29362;SDS011;16349;53.672;10.014;2023-10-08T08:14:12;2.40;;;1.07;;
29362;SDS011;16349;53.672;10.014;2023-10-08T08:16:42;4.60;;;0.90;;
29362;SDS011;16349;53.672;10.014;2023-10-08T08:19:15;2.90;;;1.43;;
29362;SDS011;16349;53.672;10.014;2023-10-08T08:21:42;2.53;;;1.17;;
29362;SDS011;16349;53.672;10.014;2023-10-08T08:24:12;4.10;;;0.83;;
29362;SDS011;16349;53.672;10.014;2023-10-08T08:26:53;3.60;;;0.70;;
29362;SDS011;16349;53.672;10.014;2023-10-08T08:29:33;2.63;;;0.83;;
29362;SDS011;16349;53.672;10.014;2023-10-08T08:32:09;2.83;;;0.90;;
29362;SDS011;16349;53.672;10.014;2023-10-08T08:34:39;2.83;;;1.37;;
29362;SDS011;16349;53.672;10.014;2023-10-08T08:37:08;2.43;;;0.80;;
29362;SDS011;16349;53.672;10.014;2023-10-08T08:39:36;3.17;;;0.60;;
29362;SDS011;16349;53.672;10.014;2023-10-08T08:42:03;3.23;;;0.73;;
29362;SDS011;16349;53.672;10.014;2023-10-08T08:44:31;3.20;;;1.17;;
29362;SDS011;16349;53.672;10.014;2023-10-08T08:47:01;1.83;;;0.60;;
29362;SDS011;16349;53.672;10.014;2023-10-08T08:49:31;3.07;;;0.70;;
29362;SDS011;16349;53.672;10.014;2023-10-08T08:52:03;2.00;;;0.60;;
29362;SDS011;16349;53.672;10.014;2023-10-08T08:54:30;2.73;;;1.00;;
29362;SDS011;16349;53.672;10.014;2023-10-08T08:56:59;2.33;;;0.80;;
29362;SDS011;16349;53.672;10.014;2023-10-08T08:59:29;3.03;;;0.80;;
29362;SDS011;16349;53.672;10.014;2023-10-08T09:01:56;8.27;;;1.40;;
29362;SDS011;16349;53.672;10.014;2023-10-08T09:04:28;2.10;;;0.80;;
29362;SDS011;16349;53.672;10.014;2023-10-08T09:06:56;2.30;;;0.67;;
29362;SDS011;16349;53.672;10.014;2023-10-08T09:09:26;2.83;;;0.80;;
29362;SDS011;16349;53.672;10.014;2023-10-08T09:11:57;2.70;;;0.63;;
29362;SDS011;16349;53.672;10.014;2023-10-08T09:14:25;1.37;;;0.70;;
29362;SDS011;16349;53.672;10.014;2023-10-08T09:16:57;1.90;;;0.83;;
29362;SDS011;16349;53.672;10.014;2023-10-08T09:19:29;3.07;;;1.27;;
29362;SDS011;16349;53.672;10.014;2023-10-08T09:22:02;5.03;;;0.97;;
29362;SDS011;16349;53.672;10.014;2023-10-08T09:24:32;2.50;;;0.73;;
29362;SDS011;16349;53.672;10.014;2023-10-08T09:27:01;2.47;;;0.80;;
29362;SDS011;16349;53.672;10.014;2023-10-08T09:29:29;1.50;;;0.80;;
29362;SDS011;16349;53.672;10.014;2023-10-08T09:31:56;2.20;;;0.60;;
29362;SDS011;16349;53.672;10.014;2023-10-08T09:34:25;1.43;;;0.67;;
29362;SDS011;16349;53.672;10.014;2023-10-08T09:36:53;2.10;;;0.80;;
29362;SDS011;16349;53.672;10.014;2023-10-08T09:39:23;2.20;;;0.50;;
29362;SDS011;16349;53.672;10.014;2023-10-08T09:41:54;0.80;;;0.53;;
29362;SDS011;16349;53.672;10.014;2023-10-08T09:44:22;2.10;;;0.97;;
29362;SDS011;16349;53.672;10.014;2023-10-08T09:46:52;1.90;;;0.70;;
29362;SDS011;16349;53.672;10.014;2023-10-08T09:49:23;1.47;;;0.67;;
29362;SDS011;16349;53.672;10.014;2023-10-08T09:51:57;4.40;;;0.57;;
29362;SDS011;16349;53.672;10.014;2023-10-08T09:54:28;1.53;;;0.50;;
29362;SDS011;16349;53.672;10.014;2023-10-08T09:56:59;2.00;;;0.47;;
29362;SDS011;16349;53.672;10.014;2023-10-08T09:59:31;2.63;;;0.57;;
29362;SDS011;16349;53.672;10.014;2023-10-08T10:01:59;2.10;;;0.70;;
29362;SDS011;16349;53.672;10.014;2023-10-08T10:04:29;1.97;;;0.70;;
29362;SDS011;16349;53.672;10.014;2023-10-08T10:06:58;1.77;;;0.60;;
29362;SDS011;16349;53.672;10.014;2023-10-08T10:09:33;7.20;;;0.57;;
29362;SDS011;16349;53.672;10.014;2023-10-08T10:12:03;2.73;;;0.60;;
29362;SDS011;16349;53.672;10.014;2023-10-08T10:14:40;1.80;;;0.57;;
29362;SDS011;16349;53.672;10.014;2023-10-08T10:17:09;2.40;;;0.70;;
29362;SDS011;16349;53.672;10.014;2023-10-08T10:19:39;1.37;;;0.40;;
29362;SDS011;16349;53.672;10.014;2023-10-08T10:22:11;2.43;;;0.60;;
29362;SDS011;16349;53.672;10.014;2023-10-08T10:24:41;1.23;;;0.73;;
29362;SDS011;16349;53.672;10.014;2023-10-08T10:27:12;1.90;;;0.50;;
29362;SDS011;16349;53.672;10.014;2023-10-08T10:29:41;0.73;;;0.70;;
29362;SDS011;16349;53.672;10.014;2023-10-08T10:32:10;0.90;;;0.40;;
29362;SDS011;16349;53.672;10.014;2023-10-08T10:34:40;1.87;;;0.87;;
29362;SDS011;16349;53.672;10.014;2023-10-08T10:37:08;1.53;;;0.53;;
29362;SDS011;16349;53.672;10.014;2023-10-08T10:39:50;0.73;;;0.70;;
29362;SDS011;16349;53.672;10.014;2023-10-08T10:42:20;2.03;;;0.60;;
29362;SDS011;16349;53.672;10.014;2023-10-08T10:44:48;1.83;;;0.67;;
29362;SDS011;16349;53.672;10.014;2023-10-08T10:47:16;2.27;;;0.50;;
29362;SDS011;16349;53.672;10.014;2023-10-08T10:49:52;2.00;;;0.80;;
29362;SDS011;16349;53.672;10.014;2023-10-08T10:52:36;2.37;;;0.67;;
29362;SDS011;16349;53.672;10.014;2023-10-08T10:55:10;2.40;;;0.83;;
29362;SDS011;16349;53.672;10.014;2023-10-08T10:57:48;2.97;;;0.87;;
29362;SDS011;16349;53.672;10.014;2023-10-08T11:00:21;1.57;;;1.20;;
29362;SDS011;16349;53.672;10.014;2023-10-08T11:03:06;1.67;;;0.80;;
29362;SDS011;16349;53.672;10.014;2023-10-08T11:05:42;1.60;;;0.50;;
29362;SDS011;16349;53.672;10.014;2023-10-08T11:08:15;2.63;;;0.60;;
29362;SDS011;16349;53.672;10.014;2023-10-08T11:10:44;2.23;;;1.00;;
29362;SDS011;16349;53.672;10.014;2023-10-08T11:13:17;1.83;;;0.60;;
29362;SDS011;16349;53.672;10.014;2023-10-08T11:15:46;3.97;;;0.70;;
29362;SDS011;16349;53.672;10.014;2023-10-08T11:18:17;0.50;;;0.47;;
29362;SDS011;16349;53.672;10.014;2023-10-08T11:20:46;1.60;;;0.70;;
29362;SDS011;16349;53.672;10.014;2023-10-08T11:23:31;3.03;;;0.60;;
29362;SDS011;16349;53.672;10.014;2023-10-08T11:25:59;1.73;;;0.77;;
29362;SDS011;16349;53.672;10.014;2023-10-08T11:28:30;0.80;;;0.50;;
29362;SDS011;16349;53.672;10.014;2023-10-08T11:30:59;3.53;;;1.17;;
29362;SDS011;16349;53.672;10.014;2023-10-08T11:33:33;2.60;;;0.80;;
29362;SDS011;16349;53.672;10.014;2023-10-08T11:36:02;1.30;;;0.70;;
29362;SDS011;16349;53.672;10.014;2023-10-08T11:38:39;2.40;;;1.30;;
29362;SDS011;16349;53.672;10.014;2023-10-08T11:41:10;1.70;;;0.50;;
29362;SDS011;16349;53.672;10.014;2023-10-08T11:43:47;1.60;;;0.83;;
29362;SDS011;16349;53.672;10.014;2023-10-08T11:46:19;1.33;;;0.40;;
29362;SDS011;16349;53.672;10.014;2023-10-08T11:48:58;0.70;;;0.50;;
29362;SDS011;16349;53.672;10.014;2023-10-08T11:51:29;0.57;;;0.50;;
29362;SDS011;16349;53.672;10.014;2023-10-08T11:53:57;1.40;;;0.40;;
29362;SDS011;16349;53.672;10.014;2023-10-08T11:56:26;1.07;;;0.70;;
29362;SDS011;16349;53.672;10.014;2023-10-08T11:58:54;1.00;;;0.50;;
29362;SDS011;16349;53.672;10.014;2023-10-08T12:01:23;0.73;;;0.50;;
29362;SDS011;16349;53.672;10.014;2023-10-08T12:03:50;0.83;;;0.60;;
29362;SDS011;16349;53.672;10.014;2023-10-08T12:06:17;1.37;;;0.70;;
29362;SDS011;16349;53.672;10.014;2023-10-08T12:08:44;2.67;;;0.73;;
29362;SDS011;16349;53.672;10.014;2023-10-08T12:11:12;1.00;;;0.77;;
29362;SDS011;16349;53.672;10.014;2023-10-08T12:13:40;1.10;;;0.80;;
29362;SDS011;16349;53.672;10.014;2023-10-08T12:16:14;1.47;;;0.50;;
29362;SDS011;16349;53.672;10.014;2023-10-08T12:18:48;1.40;;;0.60;;
29362;SDS011;16349;53.672;10.014;2023-10-08T12:21:19;0.73;;;0.60;;
29362;SDS011;16349;53.672;10.014;2023-10-08T12:23:47;1.77;;;0.70;;
29362;SDS011;16349;53.672;10.014;2023-10-08T12:26:16;1.10;;;0.60;;
29362;SDS011;16349;53.672;10.014;2023-10-08T12:28:44;0.63;;;0.63;;
29362;SDS011;16349;53.672;10.014;2023-10-08T12:31:14;4.00;;;0.80;;
29362;SDS011;16349;53.672;10.014;2023-10-08T12:33:42;1.37;;;0.60;;
29362;SDS011;16349;53.672;10.014;2023-10-08T12:36:10;2.37;;;0.73;;
29362;SDS011;16349;53.672;10.014;2023-10-08T12:38:37;1.47;;;0.93;;
29362;SDS011;16349;53.672;10.014;2023-10-08T12:41:06;2.13;;;0.53;;
29362;SDS011;16349;53.672;10.014;2023-10-08T12:43:44;0.90;;;0.50;;
29362;SDS011;16349;53.672;10.014;2023-10-08T12:46:12;2.97;;;0.70;;
29362;SDS011;16349;53.672;10.014;2023-10-08T12:48:50;1.50;;;0.60;;
29362;SDS011;16349;53.672;10.014;2023-10-08T12:51:19;0.70;;;0.60;;
29362;SDS011;16349;53.672;10.014;2023-10-08T12:53:49;1.83;;;0.80;;
29362;SDS011;16349;53.672;10.014;2023-10-08T12:56:23;1.47;;;0.60;;
29362;SDS011;16349;53.672;10.014;2023-10-08T12:58:57;2.00;;;0.70;;
29362;SDS011;16349;53.672;10.014;2023-10-08T13:01:24;1.10;;;0.50;;
29362;SDS011;16349;53.672;10.014;2023-10-08T13:03:55;0.90;;;0.60;;
29362;SDS011;16349;53.672;10.014;2023-10-08T13:06:26;0.90;;;0.60;;
29362;SDS011;16349;53.672;10.014;2023-10-08T13:08:54;0.70;;;0.70;;
29362;SDS011;16349;53.672;10.014;2023-10-08T13:11:22;0.83;;;0.60;;
29362;SDS011;16349;53.672;10.014;2023-10-08T13:13:49;1.37;;;0.97;;
29362;SDS011;16349;53.672;10.014;2023-10-08T13:16:17;3.87;;;0.70;;
29362;SDS011;16349;53.672;10.014;2023-10-08T13:18:46;1.87;;;0.80;;
29362;SDS011;16349;53.672;10.014;2023-10-08T13:21:14;2.90;;;0.43;;
29362;SDS011;16349;53.672;10.014;2023-10-08T13:23:41;1.33;;;0.70;;
29362;SDS011;16349;53.672;10.014;2023-10-08T13:26:08;2.23;;;0.70;;
29362;SDS011;16349;53.672;10.014;2023-10-08T13:28:36;1.80;;;0.70;;
29362;SDS011;16349;53.672;10.014;2023-10-08T13:31:05;1.80;;;0.50;;
29362;SDS011;16349;53.672;10.014;2023-10-08T13:33:36;0.80;;;0.33;;
29362;SDS011;16349;53.672;10.014;2023-10-08T13:36:05;1.30;;;0.50;;
29362;SDS011;16349;53.672;10.014;2023-10-08T13:38:35;2.37;;;0.70;;
29362;SDS011;16349;53.672;10.014;2023-10-08T13:41:03;1.13;;;0.60;;
29362;SDS011;16349;53.672;10.014;2023-10-08T13:43:31;1.30;;;0.67;;
29362;SDS011;16349;53.672;10.014;2023-10-08T13:46:03;1.40;;;0.60;;
29362;SDS011;16349;53.672;10.014;2023-10-08T13:48:32;0.73;;;0.60;;
29362;SDS011;16349;53.672;10.014;2023-10-08T13:51:01;0.87;;;0.40;;
29362;SDS011;16349;53.672;10.014;2023-10-08T13:53:29;2.10;;;0.60;;
29362;SDS011;16349;53.672;10.014;2023-10-08T13:55:59;1.20;;;0.70;;
29362;SDS011;16349;53.672;10.014;2023-10-08T13:58:27;1.33;;;0.60;;
29362;SDS011;16349;53.672;10.014;2023-10-08T14:00:55;1.37;;;0.60;;
29362;SDS011;16349;53.672;10.014;2023-10-08T14:03:25;1.77;;;0.90;;
29362;SDS011;16349;53.672;10.014;2023-10-08T14:05:53;0.80;;;0.70;;
29362;SDS011;16349;53.672;10.014;2023-10-08T14:08:24;2.97;;;0.70;;
29362;SDS011;16349;53.672;10.014;2023-10-08T14:10:54;2.10;;;0.70;;
29362;SDS011;16349;53.672;10.014;2023-10-08T14:13:26;1.97;;;0.60;;
29362;SDS011;16349;53.672;10.014;2023-10-08T14:15:54;1.77;;;0.70;;
29362;SDS011;16349;53.672;10.014;2023-10-08T14:18:22;7.10;;;1.20;;
29362;SDS011;16349;53.672;10.014;2023-10-08T14:20:53;4.03;;;0.63;;
29362;SDS011;16349;53.672;10.014;2023-10-08T14:23:20;1.47;;;0.70;;
29362;SDS011;16349;53.672;10.014;2023-10-08T14:25:50;3.63;;;0.67;;
29362;SDS011;16349;53.672;10.014;2023-10-08T14:28:22;5.33;;;1.37;;
29362;SDS011;16349;53.672;10.014;2023-10-08T14:31:06;2.97;;;0.60;;
29362;SDS011;16349;53.672;10.014;2023-10-08T14:33:33;1.03;;;0.40;;
29362;SDS011;16349;53.672;10.014;2023-10-08T14:36:08;1.27;;;0.40;;
29362;SDS011;16349;53.672;10.014;2023-10-08T14:38:53;1.37;;;0.53;;
29362;SDS011;16349;53.672;10.014;2023-10-08T14:41:38;3.27;;;0.67;;
29362;SDS011;16349;53.672;10.014;2023-10-08T14:44:18;1.53;;;0.77;;
29362;SDS011;16349;53.672;10.014;2023-10-08T14:46:46;0.97;;;0.60;;
29362;SDS011;16349;53.672;10.014;2023-10-08T14:49:15;2.63;;;1.00;;
29362;SDS011;16349;53.672;10.014;2023-10-08T14:51:42;0.93;;;0.60;;
29362;SDS011;16349;53.672;10.014;2023-10-08T14:54:14;2.03;;;0.50;;
29362;SDS011;16349;53.672;10.014;2023-10-08T14:56:41;1.03;;;0.73;;
29362;SDS011;16349;53.672;10.014;2023-10-08T14:59:07;1.03;;;0.73;;